Time;durP1;ratioP1;P1;durP2;ratioP2;P2;SDS_P1;SDS_P2;PMS_P1;PMS_P2;Temp;Humidity;BMP_temperature;BMP_pressure;BME280_temperature;BME280_humidity;BME280_pressure;Samples;Min_cycle;Max_cycle;Signal;HPM_P1;HPM_P2
2022/10/19 00:03:16;;;;;;;;;;;10.30;99.90;;;;;;8395082;28;19924;-81
2022/10/19 00:07:21;;;;;;;;;;;10.30;99.90;;;;;;8395131;28;19925;-81
2022/10/19 00:11:23;;;;;;;;;;;10.20;99.90;;;;;;8399690;28;19930;-81
2022/10/19 00:15:24;;;;;;;;;;;10.20;99.90;;;;;;8395362;28;19928;-81
2022/10/19 00:19:27;;;;;;;;;;;10.10;99.90;;;;;;8394370;28;19969;-80
2022/10/19 00:23:28;;;;;;;;;;;10.10;99.90;;;;;;8398070;28;19930;-81
2022/10/19 00:27:30;;;;;;;;;;;10.00;99.90;;;;;;8380811;28;19950;-81
2022/10/19 00:31:32;;;;;;;;;;;9.90;99.90;;;;;;8391180;28;20370;-81
2022/10/19 00:35:38;;;;;;;;;;;9.80;99.90;;;;;;8391550;28;19969;-81
2022/10/19 00:39:40;;;;;;;;;;;9.80;99.90;;;;;;8374401;28;19924;-81
2022/10/19 00:43:51;;;;;;;;;;;9.70;99.90;;;;;;8376740;28;19993;-81
2022/10/19 00:47:53;;;;;;;;;;;9.70;99.90;;;;;;8389588;28;20276;-81
2022/10/19 00:51:55;;;;;;;;;;;9.60;99.90;;;;;;8393771;28;19936;-81
2022/10/19 00:55:59;;;;;;;;;;;9.60;99.90;;;;;;8387238;28;20089;-81
2022/10/19 01:00:03;;;;;;;;;;;9.60;99.90;;;;;;8394166;28;20424;-81
2022/10/19 01:04:05;;;;;;;;;;;9.50;99.90;;;;;;8388436;28;20022;-81
2022/10/19 01:08:07;;;;;;;;;;;9.40;99.90;;;;;;8392399;28;20459;-81
2022/10/19 01:12:15;;;;;;;;;;;9.40;99.90;;;;;;8395862;28;19924;-81
2022/10/19 01:16:29;;;;;;;;;;;9.40;99.90;;;;;;8392954;28;19931;-82
2022/10/19 01:20:49;;;;;;;;;;;9.30;99.90;;;;;;8397431;28;20394;-81
2022/10/19 01:25:10;;;;;;;;;;;9.30;99.90;;;;;;8403337;28;19928;-80
2022/10/19 01:29:21;;;;;;;;;;;9.30;99.90;;;;;;8402085;28;20023;-81
2022/10/19 01:33:33;;;;;;;;;;;9.20;99.90;;;;;;8406179;28;19925;-81
2022/10/19 01:37:39;;;;;;;;;;;9.20;99.90;;;;;;8411235;28;19931;-81
2022/10/19 01:41:59;;;;;;;;;;;9.20;99.90;;;;;;8384517;28;19932;-81
2022/10/19 01:46:21;;;;;;;;;;;9.20;99.90;;;;;;8395539;28;19928;-81
2022/10/19 01:50:26;;;;;;;;;;;9.20;99.90;;;;;;8402485;28;19947;-81
2022/10/19 01:54:29;;;;;;;;;;;9.20;99.90;;;;;;8385889;28;20043;-82
2022/10/19 01:58:33;;;;;;;;;;;9.10;99.90;;;;;;8381970;28;20730;-81
2022/10/19 02:02:37;;;;;;;;;;;9.10;99.90;;;;;;8387926;28;19946;-81
2022/10/19 02:06:39;;;;;;;;;;;9.00;99.90;;;;;;8403900;28;20282;-81
2022/10/19 02:10:42;;;;;;;;;;;9.00;99.90;;;;;;8403845;28;20113;-81
2022/10/19 02:14:46;;;;;;;;;;;9.00;99.90;;;;;;8400851;28;19928;-81
2022/10/19 02:18:49;;;;;;;;;;;8.90;99.90;;;;;;8409201;28;20023;-81
2022/10/19 02:22:51;;;;;;;;;;;8.90;99.90;;;;;;8400515;28;20019;-80
2022/10/19 02:26:53;;;;;;;;;;;8.80;99.90;;;;;;8399826;28;20026;-80
2022/10/19 02:30:55;;;;;;;;;;;8.80;99.90;;;;;;8400483;28;19929;-81
2022/10/19 02:34:57;;;;;;;;;;;8.80;99.90;;;;;;8383534;28;19944;-81
2022/10/19 02:38:59;;;;;;;;;;;8.70;99.90;;;;;;8379121;28;19940;-81
2022/10/19 02:43:03;;;;;;;;;;;8.70;99.90;;;;;;8401652;28;20004;-80
2022/10/19 02:47:09;;;;;;;;;;;8.70;99.90;;;;;;8377216;28;19967;-81
2022/10/19 02:51:29;;;;;;;;;;;8.60;99.90;;;;;;8393582;28;20376;-81
2022/10/19 02:55:31;;;;;;;;;;;8.60;99.90;;;;;;8390647;28;19924;-80
2022/10/19 02:59:32;;;;;;;;;;;8.50;99.90;;;;;;8407783;28;19934;-81
2022/10/19 03:03:34;;;;;;;;;;;8.50;99.90;;;;;;8393412;28;19935;-81
2022/10/19 03:07:36;;;;;;;;;;;8.40;99.90;;;;;;8390747;28;19931;-81
2022/10/19 03:11:38;;;;;;;;;;;8.40;99.90;;;;;;8369153;28;19932;-81
2022/10/19 03:15:39;;;;;;;;;;;8.40;99.90;;;;;;8375959;28;19929;-81
2022/10/19 03:19:41;;;;;;;;;;;8.30;99.90;;;;;;8395778;28;19935;-81
2022/10/19 03:23:43;;;;;;;;;;;8.30;99.90;;;;;;8375341;28;19931;-81
2022/10/19 03:27:44;;;;;;;;;;;8.30;99.90;;;;;;8375111;28;19936;-81
2022/10/19 03:31:46;;;;;;;;;;;8.30;99.90;;;;;;8392674;28;19924;-80
2022/10/19 03:35:48;;;;;;;;;;;8.30;99.90;;;;;;8371295;28;19976;-80
2022/10/19 03:39:49;;;;;;;;;;;8.30;99.90;;;;;;8397257;28;20363;-80
2022/10/19 03:43:51;;;;;;;;;;;8.30;99.90;;;;;;8372607;28;19933;-81
2022/10/19 03:47:52;;;;;;;;;;;8.30;99.90;;;;;;8391278;28;19924;-80
2022/10/19 03:51:54;;;;;;;;;;;8.30;99.90;;;;;;8396636;28;19939;-80
2022/10/19 03:56:04;;;;;;;;;;;8.20;99.90;;;;;;8378738;28;19924;-81
2022/10/19 04:00:06;;;;;;;;;;;8.20;99.90;;;;;;8393931;28;19924;-80
2022/10/19 04:04:12;;;;;;;;;;;8.20;99.90;;;;;;8396991;28;20245;-80
2022/10/19 04:08:14;;;;;;;;;;;8.20;99.90;;;;;;8375435;28;19931;-81
2022/10/19 04:12:16;;;;;;;;;;;8.20;99.90;;;;;;8406179;28;19925;-81
2022/10/19 04:16:18;;;;;;;;;;;8.20;99.90;;;;;;8395175;28;19932;-80
2022/10/19 04:20:19;;;;;;;;;;;8.30;99.90;;;;;;8375025;28;19924;-81
2022/10/19 04:24:21;;;;;;;;;;;8.30;99.90;;;;;;8376195;28;19925;-81
2022/10/19 04:28:23;;;;;;;;;;;8.20;99.90;;;;;;8391150;28;20031;-81
2022/10/19 04:32:24;;;;;;;;;;;8.20;99.90;;;;;;8394816;28;19924;-81
2022/10/19 04:36:26;;;;;;;;;;;8.20;99.90;;;;;;8393413;28;19932;-80
2022/10/19 04:40:28;;;;;;;;;;;8.20;99.90;;;;;;8374764;28;19982;-81
2022/10/19 04:44:29;;;;;;;;;;;8.20;99.90;;;;;;8385722;28;19929;-81
2022/10/19 04:48:32;;;;;;;;;;;8.10;99.90;;;;;;8392686;28;19928;-81
2022/10/19 04:52:34;;;;;;;;;;;8.20;99.90;;;;;;8367479;28;19924;-80
2022/10/19 04:56:36;;;;;;;;;;;8.10;99.90;;;;;;8385006;28;19982;-80
2022/10/19 05:10:45;;;;;;;;;;;8.00;99.90;;;;;;8382015;28;19928;-80
2022/10/19 05:14:48;;;;;;;;;;;7.90;99.90;;;;;;8389575;28;19979;-80
2022/10/19 05:18:51;;;;;;;;;;;7.90;99.90;;;;;;8388476;28;20290;-80
2022/10/19 05:38:03;;;;;;;;;;;7.90;99.90;;;;;;8390220;28;19969;-79
2022/10/19 05:42:04;;;;;;;;;;;7.80;99.90;;;;;;8392769;28;20015;-80
2022/10/19 05:46:07;;;;;;;;;;;7.80;99.90;;;;;;8380417;28;20367;-80
2022/10/19 05:50:09;;;;;;;;;;;7.80;99.90;;;;;;8387039;28;19928;-80
2022/10/19 05:54:11;;;;;;;;;;;7.70;99.90;;;;;;8385468;28;19929;-81
2022/10/19 05:58:13;;;;;;;;;;;7.70;99.90;;;;;;8382620;28;19939;-80
2022/10/19 06:02:14;;;;;;;;;;;7.70;99.90;;;;;;8392938;28;20384;-80
2022/10/19 06:06:16;;;;;;;;;;;7.70;99.90;;;;;;8388798;28;19930;-79
2022/10/19 06:10:19;;;;;;;;;;;7.70;99.90;;;;;;8398733;28;19932;-81
2022/10/19 06:14:21;;;;;;;;;;;7.60;99.90;;;;;;8391245;28;19942;-81
2022/10/19 06:18:25;;;;;;;;;;;7.70;99.90;;;;;;8398004;28;20272;-80
2022/10/19 06:22:27;;;;;;;;;;;7.70;99.90;;;;;;8400761;28;19931;-81
2022/10/19 06:26:29;;;;;;;;;;;7.70;99.90;;;;;;8401204;28;19935;-81
2022/10/19 06:30:31;;;;;;;;;;;7.80;99.90;;;;;;8395260;28;19939;-82
2022/10/19 06:34:32;;;;;;;;;;;7.80;99.90;;;;;;8396385;28;19932;-81
2022/10/19 06:38:34;;;;;;;;;;;7.80;99.90;;;;;;8391423;28;19932;-82
2022/10/19 06:42:39;;;;;;;;;;;7.80;99.90;;;;;;8398686;28;19925;-81
2022/10/19 06:46:40;;;;;;;;;;;7.80;99.90;;;;;;8395301;28;19939;-81
2022/10/19 06:50:42;;;;;;;;;;;7.90;99.90;;;;;;8394397;28;20322;-80
2022/10/19 06:54:44;;;;;;;;;;;8.00;99.90;;;;;;8396767;28;19928;-81
2022/10/19 06:58:45;;;;;;;;;;;8.10;99.90;;;;;;8392123;28;19924;-81
2022/10/19 07:02:47;;;;;;;;;;;8.20;99.90;;;;;;8373893;28;19925;-81
2022/10/19 07:06:49;;;;;;;;;;;8.40;99.90;;;;;;8374279;28;20043;-82
2022/10/19 07:10:51;;;;;;;;;;;8.60;99.90;;;;;;8379219;28;20409;-82
2022/10/19 07:14:54;;;;;;;;;;;8.70;99.90;;;;;;8396218;28;19931;-82
2022/10/19 07:18:55;;;;;;;;;;;8.90;99.90;;;;;;8382541;28;19931;-79
2022/10/19 07:22:57;;;;;;;;;;;9.00;99.90;;;;;;8390942;28;19933;-80
2022/10/19 07:26:59;;;;;;;;;;;9.20;99.90;;;;;;8395957;28;19934;-80
2022/10/19 07:31:10;;;;;;;;;;;9.30;99.90;;;;;;8397580;28;19931;-82
2022/10/19 07:35:12;;;;;;;;;;;9.40;99.90;;;;;;8393932;28;20312;-82
2022/10/19 07:39:15;;;;;;;;;;;9.60;99.90;;;;;;8404493;28;19928;-81
2022/10/19 07:43:17;;;;;;;;;;;9.70;99.90;;;;;;8392887;28;19932;-82
2022/10/19 07:47:19;;;;;;;;;;;9.80;99.90;;;;;;8375246;28;19932;-81
2022/10/19 07:51:21;;;;;;;;;;;9.90;99.90;;;;;;8376861;28;19931;-80
2022/10/19 07:55:22;;;;;;;;;;;10.00;99.90;;;;;;8387824;28;19993;-81
2022/10/19 07:59:24;;;;;;;;;;;10.10;99.90;;;;;;8395532;28;19925;-81
2022/10/19 08:03:25;;;;;;;;;;;10.10;99.90;;;;;;8400520;28;19924;-81
2022/10/19 08:07:47;;;;;;;;;;;10.20;99.90;;;;;;8390620;28;20346;-80
2022/10/19 08:11:49;;;;;;;;;;;10.20;99.90;;;;;;8392121;28;19947;-80
2022/10/19 08:15:50;;;;;;;;;;;10.30;99.90;;;;;;8387178;28;19942;-81
2022/10/19 08:19:52;;;;;;;;;;;10.50;99.90;;;;;;8391397;28;19942;-80
2022/10/19 08:23:54;;;;;;;;;;;10.60;99.90;;;;;;8388662;28;19924;-81
2022/10/19 08:27:55;;;;;;;;;;;10.80;99.90;;;;;;8388370;28;20375;-81
2022/10/19 08:31:57;;;;;;;;;;;11.00;99.90;;;;;;8392106;28;20107;-81
2022/10/19 08:35:59;;;;;;;;;;;11.10;99.90;;;;;;8407717;28;19929;-81
2022/10/19 08:40:00;;;;;;;;;;;11.30;99.90;;;;;;8393040;28;19928;-81
2022/10/19 08:44:05;;;;;;;;;;;11.40;99.90;;;;;;8374326;28;19924;-80
2022/10/19 08:48:18;;;;;;;;;;;11.60;99.90;;;;;;8394518;28;19978;-81
2022/10/19 08:52:21;;;;;;;;;;;11.70;99.90;;;;;;8392401;28;19924;-81
2022/10/19 08:56:27;;;;;;;;;;;11.80;99.90;;;;;;8397837;28;20329;-81
2022/10/19 09:01:01;;;;;;;;;;;11.90;99.90;;;;;;8379003;28;20260;-82
2022/10/19 09:05:08;;;;;;;;;;;12.10;99.90;;;;;;8391824;28;20380;-81
2022/10/19 09:09:12;;;;;;;;;;;12.30;99.90;;;;;;8370333;28;20398;-82
2022/10/19 09:13:21;;;;;;;;;;;12.50;99.90;;;;;;8389636;28;20369;-81
2022/10/19 09:17:24;;;;;;;;;;;12.60;99.90;;;;;;8368661;28;20376;-80
2022/10/19 09:21:29;;;;;;;;;;;12.90;99.90;;;;;;8390971;28;20368;-80
2022/10/19 09:25:38;;;;;;;;;;;13.10;99.90;;;;;;8386001;28;19935;-80
2022/10/19 09:29:39;;;;;;;;;;;13.40;99.90;;;;;;8372242;28;19932;-80
2022/10/19 09:33:42;;;;;;;;;;;13.70;99.90;;;;;;8390444;28;19939;-81
2022/10/19 09:37:45;;;;;;;;;;;13.90;99.90;;;;;;8384189;28;19932;-81
2022/10/19 09:41:57;;;;;;;;;;;14.10;99.90;;;;;;8389540;28;19933;-81
2022/10/19 09:46:11;;;;;;;;;;;14.00;99.90;;;;;;8387990;28;19943;-81
2022/10/19 09:50:24;;;;;;;;;;;14.00;99.90;;;;;;8395050;28;19932;-81
2022/10/19 09:54:33;;;;;;;;;;;13.90;99.90;;;;;;8398348;28;19924;-81
2022/10/19 09:58:35;;;;;;;;;;;13.70;99.90;;;;;;8398315;28;19941;-81
2022/10/19 10:02:36;;;;;;;;;;;13.80;99.90;;;;;;8401057;28;19939;-81
2022/10/19 10:06:39;;;;;;;;;;;14.00;99.90;;;;;;8398198;28;19924;-81
2022/10/19 10:10:45;;;;;;;;;;;14.30;99.90;;;;;;8401774;28;20393;-82
2022/10/19 10:14:48;;;;;;;;;;;14.70;99.90;;;;;;8392277;28;19939;-81
2022/10/19 10:18:54;;;;;;;;;;;15.00;99.90;;;;;;8399842;28;20393;-82
2022/10/19 10:22:58;;;;;;;;;;;15.30;99.90;;;;;;8401351;28;19924;-82
2022/10/19 10:27:01;;;;;;;;;;;15.50;99.90;;;;;;8390355;28;20304;-82
2022/10/19 10:31:06;;;;;;;;;;;15.50;99.90;;;;;;8383695;28;20354;-82
2022/10/19 10:35:23;;;;;;;;;;;15.70;99.90;;;;;;8405850;28;19947;-82
2022/10/19 10:39:27;;;;;;;;;;;16.00;99.90;;;;;;8400719;28;19928;-82
2022/10/19 10:43:33;;;;;;;;;;;16.30;99.90;;;;;;8397493;28;20007;-82
2022/10/19 10:47:37;;;;;;;;;;;16.60;99.90;;;;;;8405841;28;19947;-82
2022/10/19 10:51:42;;;;;;;;;;;16.80;99.90;;;;;;8398037;28;19928;-82
2022/10/19 10:55:53;;;;;;;;;;;16.90;99.90;;;;;;8368226;28;19931;-81
2022/10/19 10:59:58;;;;;;;;;;;17.10;99.90;;;;;;8393889;28;19925;-82
2022/10/19 11:04:18;;;;;;;;;;;17.30;99.90;;;;;;8380817;28;19933;-82
2022/10/19 11:08:37;;;;;;;;;;;17.60;99.90;;;;;;8378197;28;19928;-82
2022/10/19 11:12:42;;;;;;;;;;;17.90;99.90;;;;;;8367368;28;19925;-82
2022/10/19 11:16:45;;;;;;;;;;;18.10;99.90;;;;;;8371126;28;19972;-82
2022/10/19 11:20:53;;;;;;;;;;;18.40;99.90;;;;;;8373442;28;20022;-82
2022/10/19 11:25:00;;;;;;;;;;;18.60;99.90;;;;;;8371698;28;19924;-81
2022/10/19 11:29:11;;;;;;;;;;;18.60;99.90;;;;;;8373815;28;20308;-82
2022/10/19 11:33:21;;;;;;;;;;;18.70;99.90;;;;;;8376934;28;19928;-80
2022/10/19 11:37:27;;;;;;;;;;;18.90;99.90;;;;;;8393238;28;19929;-80
2022/10/19 11:41:38;;;;;;;;;;;19.30;99.90;;;;;;8365505;28;19928;-80
2022/10/19 11:46:02;;;;;;;;;;;19.50;99.90;;;;;;8373253;28;19949;-80
2022/10/19 11:50:13;;;;;;;;;;;19.60;99.90;;;;;;8368648;28;19933;-80
2022/10/19 11:54:33;;;;;;;;;;;19.50;99.90;;;;;;8375440;28;19931;-80
2022/10/19 11:58:47;;;;;;;;;;;19.40;99.90;;;;;;8382528;28;20003;-81
2022/10/19 12:02:56;;;;;;;;;;;19.30;99.90;;;;;;8383001;28;20380;-80
2022/10/19 12:07:18;;;;;;;;;;;19.00;99.90;;;;;;8382839;28;19924;-80
2022/10/19 12:11:36;;;;;;;;;;;18.80;99.90;;;;;;8379468;28;19963;-79
2022/10/19 12:15:43;;;;;;;;;;;18.60;99.90;;;;;;8378229;28;19972;-79
2022/10/19 12:19:47;;;;;;;;;;;18.30;99.90;;;;;;8376980;28;19932;-81
2022/10/19 12:23:49;;;;;;;;;;;18.10;99.90;;;;;;8367992;28;19924;-80
2022/10/19 12:27:51;;;;;;;;;;;18.00;99.90;;;;;;8367362;28;20011;-80
2022/10/19 12:31:54;;;;;;;;;;;18.00;99.90;;;;;;8355047;28;19970;-80
2022/10/19 12:36:15;;;;;;;;;;;18.00;99.90;;;;;;8379372;28;19924;-81
2022/10/19 12:40:29;;;;;;;;;;;17.80;99.90;;;;;;8377433;28;19924;-80
2022/10/19 12:44:51;;;;;;;;;;;17.80;99.90;;;;;;8402705;28;20390;-81
2022/10/19 12:49:14;;;;;;;;;;;17.80;99.90;;;;;;8344379;28;19964;-80
2022/10/19 12:53:37;;;;;;;;;;;17.90;99.90;;;;;;8385613;28;19961;-80
2022/10/19 12:57:39;;;;;;;;;;;17.90;99.90;;;;;;8393946;28;19924;-80
2022/10/19 13:01:43;;;;;;;;;;;18.00;99.90;;;;;;8380070;28;20428;-80
2022/10/19 13:05:54;;;;;;;;;;;18.00;99.90;;;;;;8368043;28;19932;-80
2022/10/19 13:10:00;;;;;;;;;;;18.00;99.90;;;;;;8384201;28;20023;-80
2022/10/19 13:14:03;;;;;;;;;;;18.00;99.90;;;;;;8371153;28;20361;-80
2022/10/19 13:18:12;;;;;;;;;;;18.00;99.90;;;;;;8374337;28;19924;-80
2022/10/19 13:22:23;;;;;;;;;;;18.00;99.90;;;;;;8354659;28;20254;-80
2022/10/19 13:26:32;;;;;;;;;;;18.00;99.90;;;;;;8369209;28;19983;-81
2022/10/19 13:30:42;;;;;;;;;;;18.00;99.90;;;;;;8366767;28;19928;-81
2022/10/19 13:34:44;;;;;;;;;;;17.90;99.90;;;;;;8372081;28;21668;-80
2022/10/19 13:38:49;;;;;;;;;;;17.80;99.90;;;;;;8383976;28;19929;-80
2022/10/19 13:42:56;;;;;;;;;;;17.90;99.90;;;;;;8369840;28;20019;-80
2022/10/19 13:47:07;;;;;;;;;;;18.00;99.90;;;;;;8367122;28;19928;-80
2022/10/19 13:51:48;;;;;;;;;;;18.00;99.90;;;;;;8373811;28;19925;-81
2022/10/19 13:56:02;;;;;;;;;;;18.10;99.90;;;;;;8260838;28;19933;-80
2022/10/19 14:00:10;;;;;;;;;;;18.20;99.90;;;;;;8314636;28;20299;-81
2022/10/19 14:04:29;;;;;;;;;;;18.30;99.90;;;;;;8371384;28;20016;-80
2022/10/19 14:08:42;;;;;;;;;;;18.40;99.90;;;;;;8356994;28;20318;-79
2022/10/19 14:12:44;;;;;;;;;;;18.50;99.90;;;;;;8374863;28;19925;-81
2022/10/19 14:16:52;;;;;;;;;;;18.90;99.90;;;;;;8374817;28;19929;-81
2022/10/19 14:21:00;;;;;;;;;;;19.50;99.90;;;;;;8365542;28;20294;-81
2022/10/19 14:25:06;;;;;;;;;;;20.30;99.90;;;;;;8345839;28;20229;-80
2022/10/19 14:29:11;;;;;;;;;;;20.60;99.90;;;;;;8371746;28;19924;-79
2022/10/19 14:33:13;;;;;;;;;;;20.40;99.90;;;;;;8374012;28;19928;-78
2022/10/19 14:37:19;;;;;;;;;;;20.00;99.90;;;;;;8375839;28;19983;-80
2022/10/19 14:41:34;;;;;;;;;;;19.60;99.90;;;;;;8377817;28;19990;-79
2022/10/19 14:45:41;;;;;;;;;;;19.20;99.90;;;;;;8358798;28;20395;-79
2022/10/19 14:49:42;;;;;;;;;;;19.00;99.90;;;;;;8371273;28;19928;-80
2022/10/19 14:53:49;;;;;;;;;;;18.80;99.90;;;;;;8373949;28;19962;-80
2022/10/19 14:57:52;;;;;;;;;;;18.60;99.90;;;;;;8380894;28;19980;-80
2022/10/19 15:01:55;;;;;;;;;;;18.70;99.90;;;;;;8358666;28;19928;-80
2022/10/19 15:06:02;;;;;;;;;;;18.60;99.90;;;;;;8373939;28;19925;-80
2022/10/19 15:10:07;;;;;;;;;;;18.60;99.90;;;;;;8387702;28;19939;-80
2022/10/19 15:14:08;;;;;;;;;;;18.50;99.90;;;;;;8357309;28;19928;-79
2022/10/19 15:18:15;;;;;;;;;;;18.50;99.90;;;;;;8360081;28;21916;-80
2022/10/19 15:22:30;;;;;;;;;;;18.50;99.90;;;;;;8377472;28;20260;-80
2022/10/19 15:26:33;;;;;;;;;;;18.60;99.90;;;;;;8367010;28;20237;-80
2022/10/19 15:30:34;;;;;;;;;;;18.40;99.90;;;;;;8376057;28;19999;-79
2022/10/19 15:34:36;;;;;;;;;;;18.00;99.90;;;;;;8358425;28;19925;-80
2022/10/19 15:38:38;;;;;;;;;;;17.60;99.90;;;;;;8371233;28;20370;-80
2022/10/19 15:42:43;;;;;;;;;;;17.40;99.90;;;;;;8382022;28;20485;-79
2022/10/19 15:46:47;;;;;;;;;;;17.10;99.90;;;;;;8374476;28;19978;-79
2022/10/19 15:50:50;;;;;;;;;;;16.90;99.90;;;;;;8374279;28;20027;-80
2022/10/19 15:54:53;;;;;;;;;;;16.70;99.90;;;;;;8374346;28;19925;-79
2022/10/19 15:58:57;;;;;;;;;;;16.60;99.90;;;;;;8361673;28;19924;-79
2022/10/19 16:02:59;;;;;;;;;;;16.40;99.90;;;;;;8369976;28;19935;-79
2022/10/19 16:07:01;;;;;;;;;;;16.30;99.90;;;;;;8374912;28;20115;-79
2022/10/19 16:11:03;;;;;;;;;;;16.20;99.90;;;;;;8373728;28;19936;-79
2022/10/19 16:15:05;;;;;;;;;;;16.10;99.90;;;;;;8372996;28;19924;-79
2022/10/19 16:19:08;;;;;;;;;;;15.90;99.90;;;;;;8374977;28;20431;-79
2022/10/19 16:23:11;;;;;;;;;;;15.80;99.90;;;;;;8385215;28;19933;-79
2022/10/19 16:27:14;;;;;;;;;;;15.70;99.90;;;;;;8357612;28;20331;-79
2022/10/19 16:31:17;;;;;;;;;;;15.50;99.90;;;;;;8372995;28;19925;-79
2022/10/19 16:35:18;;;;;;;;;;;15.40;99.90;;;;;;8349538;28;20026;-79
2022/10/19 16:39:20;;;;;;;;;;;15.30;99.90;;;;;;8372145;28;19954;-80
2022/10/19 16:43:22;;;;;;;;;;;15.20;99.90;;;;;;8369715;28;19928;-78
2022/10/19 16:47:23;;;;;;;;;;;15.10;99.90;;;;;;8344758;28;20361;-79
2022/10/19 16:51:27;;;;;;;;;;;15.00;99.90;;;;;;8362146;28;19931;-79
2022/10/19 16:55:29;;;;;;;;;;;15.00;99.90;;;;;;8364881;28;20348;-78
2022/10/19 16:59:30;;;;;;;;;;;14.90;99.90;;;;;;8354328;28;20161;-79
2022/10/19 17:03:32;;;;;;;;;;;14.80;99.90;;;;;;8360470;28;19932;-79
2022/10/19 17:07:34;;;;;;;;;;;14.70;99.90;;;;;;8365926;28;19931;-79
2022/10/19 17:11:36;;;;;;;;;;;14.60;99.90;;;;;;8355010;28;20283;-79
2022/10/19 17:15:38;;;;;;;;;;;14.60;99.90;;;;;;8369834;28;20545;-79
2022/10/19 17:19:43;;;;;;;;;;;14.50;99.90;;;;;;8354814;28;19994;-79
2022/10/19 17:23:45;;;;;;;;;;;14.40;99.90;;;;;;8358350;28;19938;-78
2022/10/19 17:27:50;;;;;;;;;;;14.40;99.90;;;;;;8356969;28;19994;-78
2022/10/19 17:31:52;;;;;;;;;;;14.40;99.90;;;;;;8361189;28;19978;-79
2022/10/19 17:35:53;;;;;;;;;;;14.30;99.90;;;;;;8387163;28;20762;-79
2022/10/19 17:39:55;;;;;;;;;;;14.30;99.90;;;;;;8374965;28;19932;-79
2022/10/19 17:43:57;;;;;;;;;;;14.20;99.90;;;;;;8356601;28;20462;-79
2022/10/19 17:47:58;;;;;;;;;;;14.10;99.90;;;;;;8365945;28;20358;-78
2022/10/19 17:52:00;;;;;;;;;;;14.10;99.90;;;;;;8350624;28;20023;-78
2022/10/19 17:56:03;;;;;;;;;;;14.00;99.90;;;;;;8371661;28;19928;-79
2022/10/19 18:00:07;;;;;;;;;;;13.90;99.90;;;;;;8346699;28;19978;-79
2022/10/19 18:04:08;;;;;;;;;;;13.90;99.90;;;;;;8366307;28;23162;-79
2022/10/19 18:08:10;;;;;;;;;;;13.90;99.90;;;;;;8382956;28;20399;-79
2022/10/19 18:12:12;;;;;;;;;;;13.80;99.90;;;;;;8368256;28;20467;-79
2022/10/19 18:16:15;;;;;;;;;;;13.80;99.90;;;;;;8365449;28;19924;-79
2022/10/19 18:20:17;;;;;;;;;;;13.70;99.90;;;;;;8381911;28;19931;-80
2022/10/19 18:24:20;;;;;;;;;;;13.70;99.90;;;;;;8389348;28;19947;-80
2022/10/19 18:28:21;;;;;;;;;;;13.70;99.90;;;;;;8372110;28;19924;-79
2022/10/19 18:32:23;;;;;;;;;;;13.60;99.90;;;;;;8372222;28;20040;-79
2022/10/19 18:36:25;;;;;;;;;;;13.50;99.90;;;;;;8373617;28;19970;-79
2022/10/19 18:40:27;;;;;;;;;;;13.50;99.90;;;;;;8358319;28;19933;-79
2022/10/19 18:44:28;;;;;;;;;;;13.40;99.90;;;;;;8358249;28;22846;-80
2022/10/19 18:48:35;;;;;;;;;;;13.30;99.90;;;;;;8349371;28;19932;-81
2022/10/19 18:52:39;;;;;;;;;;;13.30;99.90;;;;;;8372901;28;19932;-80
2022/10/19 19:01:44;;;;;;;;;;;13.20;99.90;;;;;;8375556;28;19970;-81
2022/10/19 19:05:46;;;;;;;;;;;13.20;99.90;;;;;;8354311;28;21100;-80
2022/10/19 19:09:48;;;;;;;;;;;13.20;99.90;;;;;;8355160;28;20402;-81
2022/10/19 19:13:51;;;;;;;;;;;13.10;99.90;;;;;;8368588;28;20008;-80
2022/10/19 19:17:53;;;;;;;;;;;13.10;99.90;;;;;;8375645;28;20323;-81
2022/10/19 19:21:55;;;;;;;;;;;13.00;99.90;;;;;;8357735;28;20438;-81
2022/10/19 19:25:56;;;;;;;;;;;13.00;99.90;;;;;;8375059;28;19930;-81
2022/10/19 19:35:20;;;;;;;;;;;12.90;99.90;;;;;;8367888;28;19962;-80
2022/10/19 19:39:22;;;;;;;;;;;12.80;99.90;;;;;;8355597;28;19924;-81
2022/10/19 19:43:24;;;;;;;;;;;12.80;99.90;;;;;;8358657;28;19928;-80
2022/10/19 19:47:26;;;;;;;;;;;12.70;99.90;;;;;;8355539;28;20358;-80
2022/10/19 19:51:29;;;;;;;;;;;12.60;99.90;;;;;;8363442;28;20082;-80
2022/10/19 19:55:32;;;;;;;;;;;12.60;99.90;;;;;;8354022;28;19964;-81
2022/10/19 19:59:37;;;;;;;;;;;12.50;99.90;;;;;;8364364;28;20414;-80
2022/10/19 20:03:39;;;;;;;;;;;12.50;99.90;;;;;;8372844;28;19934;-81
2022/10/19 20:07:40;;;;;;;;;;;12.50;99.90;;;;;;8363799;28;19925;-81
2022/10/19 20:11:42;;;;;;;;;;;12.40;99.90;;;;;;8365669;28;19925;-80
2022/10/19 20:15:44;;;;;;;;;;;12.30;99.90;;;;;;8371296;28;20264;-81
2022/10/19 20:19:46;;;;;;;;;;;12.30;99.90;;;;;;8388380;28;20055;-80
2022/10/19 20:29:11;;;;;;;;;;;12.30;99.90;;;;;;8366462;28;20086;-81
2022/10/19 20:33:13;;;;;;;;;;;12.20;99.90;;;;;;8365291;28;19948;-80
2022/10/19 20:37:14;;;;;;;;;;;12.20;99.90;;;;;;8362777;28;19932;-81
2022/10/19 20:41:16;;;;;;;;;;;12.20;99.90;;;;;;8367781;28;20283;-80
2022/10/19 20:45:18;;;;;;;;;;;12.10;99.90;;;;;;8359910;28;19928;-81
2022/10/19 20:49:19;;;;;;;;;;;12.10;99.90;;;;;;8365157;28;19932;-80
2022/10/19 20:53:21;;;;;;;;;;;12.10;99.90;;;;;;8381043;28;20334;-80
2022/10/19 20:57:23;;;;;;;;;;;12.00;99.90;;;;;;8368866;28;19983;-79
2022/10/19 21:01:25;;;;;;;;;;;12.00;99.90;;;;;;8363862;28;19925;-80
2022/10/19 21:05:26;;;;;;;;;;;12.00;99.90;;;;;;8384333;28;20399;-80
2022/10/19 21:09:28;;;;;;;;;;;12.00;99.90;;;;;;8384501;28;19932;-80
2022/10/19 21:13:30;;;;;;;;;;;12.00;99.90;;;;;;8373994;28;20474;-80
2022/10/19 21:17:31;;;;;;;;;;;12.00;99.90;;;;;;8390485;28;19925;-80
2022/10/19 21:21:34;;;;;;;;;;;11.90;99.90;;;;;;8394252;28;19929;-81
2022/10/19 21:25:36;;;;;;;;;;;11.90;99.90;;;;;;8377432;28;20435;-80
2022/10/19 21:29:38;;;;;;;;;;;11.80;99.90;;;;;;8371125;28;19925;-80
2022/10/19 21:33:39;;;;;;;;;;;11.80;99.90;;;;;;8393293;28;19924;-80
2022/10/19 21:37:41;;;;;;;;;;;11.80;99.90;;;;;;8391730;28;20306;-81
2022/10/19 21:41:43;;;;;;;;;;;11.80;99.90;;;;;;8403668;28;20336;-80
2022/10/19 21:45:44;;;;;;;;;;;11.80;99.90;;;;;;8380575;28;19936;-80
2022/10/19 21:49:46;;;;;;;;;;;11.70;99.90;;;;;;8394364;28;20437;-79
2022/10/19 21:53:48;;;;;;;;;;;11.70;99.90;;;;;;8374538;28;19933;-80
2022/10/19 21:57:49;;;;;;;;;;;11.70;99.90;;;;;;8400742;28;19930;-80
2022/10/19 22:01:53;;;;;;;;;;;11.70;99.90;;;;;;8399919;28;19990;-80
2022/10/19 22:05:55;;;;;;;;;;;11.70;99.90;;;;;;8398035;28;19963;-81
2022/10/19 22:20:17;;;;;;;;;;;11.70;99.90;;;;;;8381519;28;20015;-79
2022/10/19 22:29:22;;;;;;;;;;;11.70;99.90;;;;;;8391264;28;19965;-80
2022/10/19 22:33:24;;;;;;;;;;;11.60;99.90;;;;;;8403341;28;19932;-80
2022/10/19 22:37:26;;;;;;;;;;;11.70;99.90;;;;;;8376149;28;19930;-80
2022/10/19 22:46:06;;;;;;;;;;;11.60;99.90;;;;;;8398513;28;19924;-80
2022/10/19 22:50:10;;;;;;;;;;;11.60;99.90;;;;;;8397192;28;19935;-81
2022/10/19 22:54:12;;;;;;;;;;;11.60;99.90;;;;;;8391032;28;19925;-80
2022/10/19 22:58:14;;;;;;;;;;;11.60;99.90;;;;;;8400951;28;19939;-80
2022/10/19 23:02:15;;;;;;;;;;;11.60;99.90;;;;;;8404885;28;21565;-80
2022/10/19 23:06:17;;;;;;;;;;;11.60;99.90;;;;;;8400859;28;19924;-81
2022/10/19 23:10:19;;;;;;;;;;;11.60;99.90;;;;;;8398376;28;19931;-80
2022/10/19 23:14:20;;;;;;;;;;;11.60;99.90;;;;;;8391563;28;20265;-80
2022/10/19 23:18:22;;;;;;;;;;;11.60;99.90;;;;;;8374724;28;20003;-80
2022/10/19 23:22:24;;;;;;;;;;;11.60;99.90;;;;;;8397861;28;19935;-79
2022/10/19 23:26:26;;;;;;;;;;;11.60;99.90;;;;;;8398586;28;19925;-80
2022/10/19 23:30:27;;;;;;;;;;;11.60;99.90;;;;;;8397018;28;19978;-81
2022/10/19 23:34:29;;;;;;;;;;;11.60;99.90;;;;;;8395518;28;20505;-80
2022/10/19 23:38:30;;;;;;;;;;;11.60;99.90;;;;;;8398123;28;19925;-80
2022/10/19 23:42:32;;;;;;;;;;;11.60;99.90;;;;;;8394772;28;19929;-81
2022/10/19 23:46:34;;;;;;;;;;;11.60;99.90;;;;;;8398694;28;19939;-80
2022/10/19 23:50:35;;;;;;;;;;;11.60;99.90;;;;;;8396653;28;20015;-80
2022/10/19 23:54:37;;;;;;;;;;;11.60;99.90;;;;;;8387116;28;19931;-80
2022/10/19 23:58:39;;;;;;;;;;;11.60;99.90;;;;;;8389554;28;20013;-79
